createdAt,value
2019-01-25T00:03:18.904Z,40.37
2019-01-25T00:08:24.279Z,38.27
2019-01-25T00:13:29.619Z,40.90
2019-01-25T00:18:34.943Z,40.33
2019-01-25T00:23:40.270Z,39.60
2019-01-25T00:28:45.662Z,40.27
2019-01-25T00:33:51.025Z,38.20
2019-01-25T00:38:56.392Z,37.90
2019-01-25T00:44:01.731Z,37.70
2019-01-25T00:49:07.079Z,38.67
2019-01-25T00:54:12.398Z,39.20
2019-01-25T00:59:17.712Z,37.80
2019-01-25T01:04:23.080Z,40.30
2019-01-25T01:09:28.434Z,41.17
2019-01-25T01:14:33.819Z,39.20
2019-01-25T01:19:39.183Z,39.07
2019-01-25T01:24:44.569Z,38.97
2019-01-25T01:29:49.920Z,38.13
2019-01-25T01:34:55.345Z,39.60
2019-01-25T01:40:00.654Z,38.00
2019-01-25T01:45:06.343Z,38.10
2019-01-25T01:50:13.992Z,38.30
2019-01-25T01:55:19.321Z,38.97
2019-01-25T02:00:28.219Z,38.97
2019-01-25T02:05:33.575Z,39.67
2019-01-25T02:10:38.915Z,37.17
2019-01-25T02:15:44.242Z,37.53
2019-01-25T02:20:49.647Z,38.03
2019-01-25T02:25:55.504Z,37.97
2019-01-25T02:31:01.131Z,37.43
2019-01-25T02:36:06.736Z,39.80
2019-01-25T02:41:12.288Z,37.67
2019-01-25T02:46:17.822Z,39.93
2019-01-25T02:51:23.399Z,39.07
2019-01-25T02:56:28.934Z,40.37
2019-01-25T03:01:34.321Z,40.37
2019-01-25T03:06:39.733Z,40.20
2019-01-25T03:11:45.086Z,41.33
2019-01-25T03:16:50.393Z,41.63
2019-01-25T03:21:55.737Z,41.93
2019-01-25T03:27:01.061Z,42.67
2019-01-25T03:32:06.425Z,42.43
2019-01-25T03:37:11.755Z,41.03
2019-01-25T03:42:17.061Z,42.13
2019-01-25T03:47:22.374Z,43.43
2019-01-25T03:52:27.685Z,40.70
2019-01-25T03:57:33.048Z,39.63
2019-01-25T04:02:38.401Z,42.37
2019-01-25T04:07:43.753Z,42.80
2019-01-25T04:12:49.146Z,41.90
2019-01-25T04:17:54.562Z,42.93
2019-01-25T04:22:59.886Z,41.33
2019-01-25T04:28:05.270Z,45.27
2019-01-25T04:33:10.612Z,43.87
2019-01-25T04:38:15.941Z,42.20
2019-01-25T04:43:21.296Z,43.00
2019-01-25T04:48:26.709Z,43.40
2019-01-25T04:53:33.414Z,43.30
2019-01-25T04:58:38.743Z,44.63
2019-01-25T05:03:44.791Z,43.93
2019-01-25T05:08:50.135Z,44.97
2019-01-25T05:13:55.454Z,44.23
2019-01-25T05:19:00.751Z,43.93
2019-01-25T05:24:12.448Z,44.10
2019-01-25T05:29:19.429Z,47.13
2019-01-25T05:34:24.821Z,44.77
2019-01-25T05:39:30.120Z,43.93
2019-01-25T05:44:35.472Z,44.10
2019-01-25T05:49:40.797Z,43.00
2019-01-25T05:54:46.112Z,43.33
2019-01-25T05:59:51.483Z,43.53
2019-01-25T06:04:57.145Z,45.73
2019-01-25T06:10:02.540Z,44.87
2019-01-25T06:15:08.350Z,43.30
2019-01-25T06:20:13.809Z,43.77
2019-01-25T06:25:19.140Z,42.70
2019-01-25T06:30:24.467Z,41.70
2019-01-25T06:35:29.817Z,43.80
2019-01-25T06:40:35.293Z,44.50
2019-01-25T06:45:40.724Z,42.17
2019-01-25T06:50:46.030Z,43.30
2019-01-25T06:55:51.414Z,43.87
2019-01-25T07:01:13.316Z,42.87
2019-01-25T07:06:18.885Z,44.47
2019-01-25T07:11:24.265Z,43.33
2019-01-25T07:16:29.640Z,43.87
2019-01-25T07:21:34.984Z,45.40
2019-01-25T07:26:40.325Z,43.23
2019-01-25T07:31:46.393Z,45.10
2019-01-25T07:36:52.116Z,43.30
2019-01-25T07:41:59.613Z,43.50
2019-01-25T07:47:04.756Z,44.90
2019-01-25T07:52:10.165Z,45.20
2019-01-25T07:57:15.593Z,46.33
2019-01-25T08:02:20.946Z,46.40
2019-01-25T08:07:26.387Z,44.97
2019-01-25T08:12:31.982Z,46.53
2019-01-25T08:17:37.333Z,42.43
2019-01-25T08:22:42.911Z,44.13
2019-01-25T08:27:48.833Z,42.33
2019-01-25T08:32:54.342Z,43.47
2019-01-25T08:37:59.721Z,43.67
2019-01-25T08:43:05.089Z,41.67
2019-01-25T08:48:10.575Z,42.60
2019-01-25T08:53:15.962Z,42.57
2019-01-25T08:58:21.317Z,41.33
2019-01-25T09:03:26.663Z,40.20
2019-01-25T09:08:32.013Z,41.63
2019-01-25T09:13:37.424Z,42.13
2019-01-25T09:18:42.740Z,43.80
2019-01-25T09:23:48.080Z,43.57
2019-01-25T09:28:53.448Z,41.93
2019-01-25T09:33:58.798Z,41.50
2019-01-25T09:39:05.764Z,43.40
2019-01-25T09:44:11.140Z,42.77
2019-01-25T09:49:16.563Z,42.13
2019-01-25T09:54:21.875Z,42.23
2019-01-25T09:59:27.312Z,45.70
2019-01-25T10:04:32.778Z,44.50
2019-01-25T10:09:38.117Z,44.60
2019-01-25T10:14:43.465Z,43.17
2019-01-25T10:19:50.585Z,41.20
2019-01-25T10:24:55.891Z,42.57
2019-01-25T10:30:01.291Z,39.97
2019-01-25T10:35:08.451Z,40.20
2019-01-25T10:40:16.674Z,42.10
2019-01-25T10:45:34.195Z,40.33
2019-01-25T10:50:39.525Z,40.83
2019-01-25T10:55:44.942Z,41.87
2019-01-25T11:00:51.339Z,38.77
2019-01-25T11:05:56.867Z,34.47
2019-01-25T11:11:02.425Z,26.57
2019-01-25T11:16:11.972Z,22.17
2019-01-25T11:21:15.126Z,18.13
2019-01-25T11:26:20.424Z,16.00
2019-01-25T11:31:25.774Z,15.87
2019-01-25T11:36:31.115Z,12.93
2019-01-25T11:41:36.465Z,12.37
2019-01-25T11:46:41.802Z,13.80
2019-01-25T11:51:47.277Z,14.30
2019-01-25T11:56:52.676Z,12.17
2019-01-25T12:01:58.048Z,12.33
2019-01-25T12:07:03.435Z,12.70
2019-01-25T12:12:08.766Z,12.80
2019-01-25T12:17:14.162Z,12.70
2019-01-25T12:22:19.800Z,13.73
2019-01-25T12:27:25.227Z,12.30
2019-01-25T12:32:30.601Z,13.47
2019-01-25T12:37:35.889Z,13.67
2019-01-25T12:42:41.189Z,12.53
2019-01-25T12:47:46.521Z,12.30
2019-01-25T12:52:51.921Z,12.17
2019-01-25T12:57:57.241Z,12.40
2019-01-25T13:03:02.600Z,11.60
2019-01-25T13:08:07.968Z,11.47
2019-01-25T13:13:13.356Z,12.37
2019-01-25T13:18:18.756Z,11.50
2019-01-25T13:23:24.433Z,10.43
2019-01-25T13:28:29.841Z,10.87
2019-01-25T13:33:35.267Z,9.93
2019-01-25T13:38:41.106Z,9.47
2019-01-25T13:43:46.445Z,9.73
2019-01-25T13:48:51.767Z,10.13
2019-01-25T13:53:57.116Z,9.43
2019-01-25T13:59:02.718Z,10.03
2019-01-25T14:04:08.060Z,9.53
2019-01-25T14:09:13.391Z,9.30
2019-01-25T14:14:18.722Z,9.90
2019-01-25T14:19:24.198Z,9.10
2019-01-25T14:24:29.624Z,9.83
2019-01-25T14:29:35.016Z,9.40
2019-01-25T14:34:40.372Z,7.77
2019-01-25T14:39:45.809Z,7.63
2019-01-25T14:44:51.213Z,8.37
2019-01-25T14:49:56.592Z,7.23
2019-01-25T14:55:01.929Z,6.70
2019-01-25T15:00:07.896Z,6.20
2019-01-25T15:05:16.123Z,6.00
2019-01-25T15:10:23.968Z,6.53
2019-01-25T15:15:29.304Z,7.03
2019-01-25T15:20:34.609Z,7.70
2019-01-25T15:25:39.941Z,7.03
2019-01-25T15:30:45.395Z,6.80
2019-01-25T15:35:50.695Z,6.97
2019-01-25T15:40:55.990Z,6.57
2019-01-25T15:46:01.299Z,6.57
2019-01-25T15:51:06.717Z,7.90
2019-01-25T15:56:12.134Z,7.73
2019-01-25T16:01:17.737Z,8.07
2019-01-25T16:06:23.072Z,8.90
2019-01-25T16:11:29.135Z,8.47
2019-01-25T16:16:34.492Z,8.53
2019-01-25T16:21:39.801Z,8.13
2019-01-25T16:26:45.738Z,8.57
2019-01-25T16:31:51.180Z,10.10
2019-01-25T16:36:57.133Z,11.13
2019-01-25T16:42:02.662Z,11.47
2019-01-25T16:47:08.118Z,12.40
2019-01-25T16:52:14.024Z,12.27
2019-01-25T16:57:19.462Z,11.67
2019-01-25T17:02:25.063Z,13.00
2019-01-25T17:07:30.415Z,11.90
2019-01-25T17:12:35.723Z,13.30
2019-01-25T17:17:41.075Z,11.80
2019-01-25T17:22:46.384Z,12.73
2019-01-25T17:27:51.717Z,13.70
2019-01-25T17:32:58.976Z,12.07
2019-01-25T17:38:05.537Z,11.90
2019-01-25T17:43:10.875Z,13.20
2019-01-25T17:48:16.166Z,12.73
2019-01-25T17:53:21.571Z,14.50
2019-01-25T17:58:26.899Z,14.87
2019-01-25T18:03:33.110Z,14.33
2019-01-25T18:08:38.608Z,15.50
2019-01-25T18:13:44.477Z,14.63
2019-01-25T18:18:49.966Z,14.43
2019-01-25T18:23:55.296Z,15.53
2019-01-25T18:29:12.298Z,15.23
2019-01-25T18:34:17.797Z,17.83
2019-01-25T18:39:23.431Z,15.60
2019-01-25T18:44:28.863Z,16.33
2019-01-25T18:49:34.221Z,16.13
2019-01-25T18:54:39.571Z,15.40
2019-01-25T18:59:44.940Z,15.63
2019-01-25T19:04:50.296Z,15.90
2019-01-25T19:09:55.611Z,15.70
2019-01-25T19:15:04.557Z,15.10
2019-01-25T19:20:10.951Z,14.83
2019-01-25T19:25:16.336Z,13.83
2019-01-25T19:30:34.553Z,14.50
2019-01-25T19:35:39.869Z,15.60
2019-01-25T19:40:45.264Z,15.67
2019-01-25T19:45:50.589Z,16.57
2019-01-25T19:50:55.947Z,16.90
2019-01-25T19:56:01.311Z,14.73
2019-01-25T20:01:06.773Z,15.53
2019-01-25T20:06:12.102Z,18.37
2019-01-25T20:11:17.454Z,15.83
2019-01-25T20:16:22.835Z,18.57
2019-01-25T20:21:28.159Z,17.50
2019-01-25T20:26:33.568Z,17.20
2019-01-25T20:31:38.870Z,15.37
2019-01-25T20:36:44.202Z,15.33
2019-01-25T20:41:49.596Z,15.90
2019-01-25T20:46:54.935Z,16.37
2019-01-25T20:52:00.453Z,14.93
2019-01-25T20:57:05.781Z,14.30
2019-01-25T21:02:11.128Z,14.33
2019-01-25T21:07:16.470Z,14.83
2019-01-25T21:12:21.913Z,19.07
2019-01-25T21:17:27.204Z,15.40
2019-01-25T21:22:32.591Z,15.10
2019-01-25T21:27:37.924Z,14.37
2019-01-25T21:32:43.222Z,15.77
2019-01-25T21:37:48.505Z,14.93
2019-01-25T21:42:53.849Z,14.60
2019-01-25T21:47:59.224Z,13.70
2019-01-25T21:53:04.564Z,14.57
2019-01-25T21:58:09.940Z,13.70
2019-01-25T22:03:15.269Z,13.63
2019-01-25T22:08:20.666Z,13.27
2019-01-25T22:13:26.104Z,12.87
2019-01-25T22:18:31.501Z,14.83
2019-01-25T22:23:36.850Z,13.60
2019-01-25T22:28:42.141Z,12.77
2019-01-25T22:33:47.495Z,11.57
2019-01-25T22:38:52.810Z,11.67
2019-01-25T22:43:58.186Z,12.33
2019-01-25T22:49:03.561Z,10.10
2019-01-25T22:54:08.901Z,11.60
2019-01-25T22:59:14.429Z,10.93
2019-01-25T23:05:07.675Z,9.80
2019-01-25T23:10:21.371Z,10.83
2019-01-25T23:15:26.775Z,10.50
2019-01-25T23:20:32.126Z,9.30
2019-01-25T23:25:37.504Z,10.23
2019-01-25T23:30:42.802Z,8.67
2019-01-25T23:35:48.140Z,8.17
2019-01-25T23:40:53.543Z,7.77
2019-01-25T23:45:58.829Z,6.47
2019-01-25T23:51:04.161Z,7.30
2019-01-25T23:56:09.468Z,7.27
